Time;durP1;ratioP1;P1;durP2;ratioP2;P2;SDS_P1;SDS_P2;PMS_P1;PMS_P2;Temp;Humidity;BMP_temperature;BMP_pressure;BME280_temperature;BME280_humidity;BME280_pressure;Samples;Min_cycle;Max_cycle;Signal;HPM_P1;HPM_P2
2023/07/12 00:00:46;;;;;;;5.47;3.53;;;18.20;99.90;;;;;;5096869;27;20410;-92
2023/07/12 00:03:12;;;;;;;5.50;4.38;;;17.80;99.90;;;;;;5093901;27;20398;-92
2023/07/12 00:05:38;;;;;;;4.95;4.03;;;18.00;99.90;;;;;;5096765;27;20476;-92
2023/07/12 00:08:04;;;;;;;5.47;4.00;;;17.70;99.90;;;;;;5094367;27;20402;-92
2023/07/12 00:10:35;;;;;;;4.85;3.88;;;17.80;99.90;;;;;;5096472;27;20419;-93
2023/07/12 00:13:02;;;;;;;4.72;3.70;;;17.80;99.90;;;;;;5094704;27;20399;-93
2023/07/12 00:15:32;;;;;;;6.18;4.38;;;18.10;99.90;;;;;;5096513;27;20399;-92
2023/07/12 00:17:58;;;;;;;5.70;4.68;;;17.80;99.90;;;;;;5095695;27;20410;-92
2023/07/12 00:20:31;;;;;;;5.57;3.83;;;18.00;99.90;;;;;;5094735;27;20547;-92
2023/07/12 00:22:57;;;;;;;6.72;4.72;;;17.70;99.90;;;;;;5096688;27;20402;-92
2023/07/12 00:25:24;;;;;;;7.15;5.30;;;18.10;99.90;;;;;;5094044;27;20426;-92
2023/07/12 00:27:50;;;;;;;5.00;4.28;;;17.50;99.90;;;;;;5096591;27;20496;-91
2023/07/12 00:30:22;;;;;;;7.30;5.37;;;17.70;99.90;;;;;;5093682;27;20928;-92
2023/07/12 00:32:53;;;;;;;6.03;5.35;;;17.80;99.90;;;;;;5095940;27;20410;-91
2023/07/12 00:35:24;;;;;;;6.05;4.85;;;17.80;99.90;;;;;;5095450;27;20486;-91
2023/07/12 00:37:53;;;;;;;5.88;5.07;;;17.60;99.90;;;;;;5094340;27;20407;-92
2023/07/12 00:40:42;;;;;;;7.30;5.65;;;18.00;99.90;;;;;;5096367;27;20431;-92
2023/07/12 00:43:20;;;;;;;5.88;5.28;;;17.60;99.90;;;;;;5093959;27;20493;-91
2023/07/12 00:45:50;;;;;;;6.77;5.37;;;17.50;99.90;;;;;;5095834;27;20439;-92
2023/07/12 00:48:16;;;;;;;7.57;5.03;;;17.60;99.90;;;;;;5095284;27;20399;-92
2023/07/12 00:50:42;;;;;;;8.38;5.70;;;17.50;99.90;;;;;;5094073;27;20415;-92
2023/07/12 00:53:25;;;;;;;7.63;5.63;;;17.90;99.90;;;;;;5095905;27;20398;-92
2023/07/12 00:55:59;;;;;;;7.68;6.05;;;17.50;99.90;;;;;;5093547;27;20908;-93
2023/07/12 00:58:37;;;;;;;7.80;5.38;;;17.40;99.90;;;;;;5095885;27;20407;-91
2023/07/12 01:01:05;;;;;;;8.35;5.60;;;17.50;99.90;;;;;;5094255;27;20418;-92
2023/07/12 01:03:35;;;;;;;9.83;5.43;;;17.50;99.90;;;;;;5094596;27;20881;-92
2023/07/12 01:06:02;;;;;;;7.78;6.03;;;17.50;99.90;;;;;;5095026;27;20398;-92
2023/07/12 01:08:30;;;;;;;7.97;6.07;;;17.40;99.90;;;;;;5093359;27;20405;-91
2023/07/12 01:10:59;;;;;;;6.97;5.13;;;17.70;99.90;;;;;;5095059;27;20471;-92
2023/07/12 01:13:25;;;;;;;8.93;5.65;;;17.50;99.90;;;;;;5092159;28;20532;-92
2023/07/12 01:15:52;;;;;;;8.15;5.07;;;17.60;99.90;;;;;;5095247;27;20889;-92
2023/07/12 01:18:19;;;;;;;8.75;5.40;;;17.40;99.90;;;;;;5093308;27;20390;-92
2023/07/12 01:20:45;;;;;;;7.88;5.20;;;17.40;99.90;;;;;;5094867;27;20461;-92
2023/07/12 01:23:13;;;;;;;9.18;5.53;;;17.40;99.90;;;;;;5094771;27;20406;-92
2023/07/12 01:25:42;;;;;;;7.38;5.10;;;17.90;99.90;;;;;;5093436;27;20399;-92
2023/07/12 01:28:08;;;;;;;8.57;5.68;;;17.80;99.90;;;;;;5095003;27;20394;-91
2023/07/12 01:30:34;;;;;;;11.10;5.60;;;17.40;99.90;;;;;;5092110;27;20462;-91
2023/07/12 01:33:00;;;;;;;9.75;5.05;;;17.40;99.90;;;;;;5095034;27;20854;-92
2023/07/12 01:35:26;;;;;;;8.88;5.18;;;17.40;99.90;;;;;;5092570;27;20482;-92
2023/07/12 01:37:53;;;;;;;9.50;5.32;;;17.40;99.90;;;;;;5094698;27;20983;-93
2023/07/12 01:40:18;;;;;;;8.57;4.55;;;17.50;99.90;;;;;;5093549;27;20403;-93
2023/07/12 01:42:44;;;;;;;8.85;4.28;;;17.40;99.90;;;;;;5094001;27;20406;-93
2023/07/12 01:45:10;;;;;;;8.33;4.90;;;17.40;99.90;;;;;;5094735;27;20889;-91
2023/07/12 01:47:36;;;;;;;8.73;4.93;;;17.40;99.90;;;;;;5092621;27;20909;-93
2023/07/12 01:50:02;;;;;;;12.70;5.47;;;17.70;99.90;;;;;;5094813;27;20427;-90
2023/07/12 01:52:28;;;;;;;11.13;5.43;;;17.40;99.90;;;;;;5091858;27;20528;-91
2023/07/12 01:54:54;;;;;;;12.43;5.55;;;17.40;99.90;;;;;;5094690;27;20478;-91
2023/07/12 01:57:20;;;;;;;10.33;5.13;;;17.80;99.90;;;;;;5092607;27;20398;-90
2023/07/12 01:59:46;;;;;;;11.25;5.40;;;17.70;99.90;;;;;;5094281;27;20407;-90
2023/07/12 02:02:11;;;;;;;11.52;4.90;;;17.80;99.90;;;;;;5094160;27;20420;-92
2023/07/12 02:04:37;;;;;;;11.50;4.87;;;17.90;99.90;;;;;;5093111;27;20829;-90
2023/07/12 02:07:04;;;;;;;8.85;4.82;;;17.50;99.90;;;;;;5094316;27;20402;-92
2023/07/12 02:09:35;;;;;;;11.57;4.95;;;17.50;99.90;;;;;;5091735;27;20782;-92
2023/07/12 02:12:00;;;;;;;10.52;4.53;;;17.50;99.90;;;;;;5094643;27;20402;-91
2023/07/12 02:14:27;;;;;;;9.25;4.13;;;17.70;99.90;;;;;;5092438;27;20421;-91
2023/07/12 02:16:53;;;;;;;10.40;4.43;;;17.40;99.90;;;;;;5094779;27;20416;-91
2023/07/12 02:19:19;;;;;;;11.30;4.22;;;17.70;99.90;;;;;;5092431;27;20769;-92
2023/07/12 02:21:45;;;;;;;10.65;4.40;;;17.70;99.90;;;;;;5093005;28;20403;-91
2023/07/12 02:24:11;;;;;;;11.20;4.10;;;17.80;99.90;;;;;;5094040;27;20395;-92
2023/07/12 02:26:39;;;;;;;12.57;4.65;;;17.60;99.90;;;;;;5091783;28;20401;-92
2023/07/12 02:29:05;;;;;;;14.35;4.35;;;17.80;99.90;;;;;;5094040;28;20418;-93
2023/07/12 02:31:32;;;;;;;13.73;5.00;;;17.50;99.90;;;;;;5092080;28;20749;-92
2023/07/12 02:33:57;;;;;;;13.57;5.07;;;17.50;99.90;;;;;;5094515;28;20398;-94
2023/07/12 02:36:23;;;;;;;13.73;5.68;;;17.80;99.90;;;;;;5091419;28;20429;-91
2023/07/12 02:38:49;;;;;;;12.83;5.27;;;17.50;99.90;;;;;;5094008;28;20403;-92
2023/07/12 02:41:16;;;;;;;13.40;5.53;;;17.50;99.90;;;;;;5092873;28;20407;-92
2023/07/12 02:43:42;;;;;;;15.20;5.68;;;17.50;99.90;;;;;;5092585;28;20437;-91
2023/07/12 02:46:08;;;;;;;11.35;5.30;;;17.80;99.90;;;;;;5094929;28;20438;-91
2023/07/12 02:48:35;;;;;;;14.50;6.50;;;17.70;99.90;;;;;;5091614;28;20398;-91
2023/07/12 02:51:01;;;;;;;16.50;6.40;;;17.20;99.90;;;;;;5093755;28;20424;-91
2023/07/12 02:53:28;;;;;;;13.85;6.20;;;17.50;99.90;;;;;;5091556;28;20413;-92
2023/07/12 02:55:54;;;;;;;13.82;6.00;;;17.60;99.90;;;;;;5094078;28;20403;-92
2023/07/12 02:58:21;;;;;;;15.45;6.97;;;17.30;99.90;;;;;;5092805;28;20401;-92
2023/07/12 03:00:47;;;;;;;15.52;6.47;;;17.50;99.90;;;;;;5093755;28;20438;-93
2023/07/12 03:03:13;;;;;;;17.33;5.87;;;17.60;99.90;;;;;;5093210;28;20442;-91
2023/07/12 03:05:40;;;;;;;14.48;5.10;;;17.20;99.90;;;;;;5091537;28;20407;-91
2023/07/12 03:08:07;;;;;;;14.70;6.40;;;17.50;99.90;;;;;;5093767;28;20463;-92
2023/07/12 03:10:36;;;;;;;14.95;5.88;;;17.30;99.90;;;;;;5091072;28;20422;-91
2023/07/12 03:13:02;;;;;;;14.50;6.80;;;17.50;99.90;;;;;;5094126;28;20547;-92
2023/07/12 03:15:28;;;;;;;16.08;6.65;;;17.20;99.90;;;;;;5091254;28;20443;-91
2023/07/12 03:17:53;;;;;;;16.85;6.85;;;17.50;99.90;;;;;;5093433;28;20409;-92
2023/07/12 03:20:19;;;;;;;14.43;6.60;;;17.50;99.90;;;;;;5092526;28;20394;-91
2023/07/12 03:22:45;;;;;;;15.82;6.68;;;17.50;99.90;;;;;;5092434;28;20406;-92
2023/07/12 03:25:11;;;;;;;19.83;9.05;;;17.20;99.90;;;;;;5093717;28;20403;-92
2023/07/12 03:27:37;;;;;;;16.67;7.20;;;17.50;99.90;;;;;;5091332;28;20489;-91
2023/07/12 03:30:04;;;;;;;16.08;7.05;;;17.70;99.90;;;;;;5092003;28;20427;-91
2023/07/12 03:32:31;;;;;;;15.98;7.05;;;17.30;99.90;;;;;;5089935;28;20462;-91
2023/07/12 03:34:57;;;;;;;12.80;6.50;;;17.50;99.90;;;;;;5092018;28;20435;-91
2023/07/12 03:37:22;;;;;;;17.23;7.67;;;17.50;99.90;;;;;;5092240;27;20450;-92
2023/07/12 03:39:48;;;;;;;14.95;8.02;;;17.20;99.90;;;;;;5097171;27;20604;-91
2023/07/12 03:42:14;;;;;;;14.20;7.10;;;17.30;99.90;;;;;;5096597;27;21055;-91
2023/07/12 03:44:40;;;;;;;16.80;7.05;;;17.60;99.90;;;;;;5096015;27;20402;-92
2023/07/12 03:47:06;;;;;;;18.07;7.30;;;17.60;99.90;;;;;;5096975;27;20464;-89
2023/07/12 03:49:32;;;;;;;16.70;7.22;;;17.30;99.90;;;;;;5094303;27;20423;-90
2023/07/12 03:51:58;;;;;;;16.03;7.00;;;17.30;99.90;;;;;;5096952;27;20399;-91
2023/07/12 03:54:24;;;;;;;17.63;7.30;;;17.60;99.90;;;;;;5094840;27;20402;-91
2023/07/12 03:56:50;;;;;;;16.95;7.80;;;17.00;99.90;;;;;;5096831;27;20399;-90
2023/07/12 03:59:15;;;;;;;21.10;8.00;;;17.20;99.90;;;;;;5095446;27;20734;-91
2023/07/12 04:01:41;;;;;;;17.90;7.45;;;17.20;99.90;;;;;;5096036;27;20903;-91
2023/07/12 04:04:07;;;;;;;18.27;7.65;;;17.10;99.90;;;;;;5096552;27;20402;-91
2023/07/12 04:06:33;;;;;;;20.05;7.72;;;17.10;99.90;;;;;;5094699;27;20399;-91
2023/07/12 04:08:59;;;;;;;18.83;7.90;;;17.10;99.90;;;;;;5096499;27;20425;-91
2023/07/12 04:11:31;;;;;;;20.48;6.85;;;17.40;99.90;;;;;;5094236;27;20505;-90
2023/07/12 04:14:02;;;;;;;19.50;6.87;;;17.10;99.90;;;;;;5096427;27;20406;-91
2023/07/12 04:16:29;;;;;;;21.00;7.50;;;17.00;99.90;;;;;;5094264;27;20403;-91
2023/07/12 04:18:55;;;;;;;18.70;6.82;;;17.10;99.90;;;;;;5095972;27;20419;-91
2023/07/12 04:21:21;;;;;;;18.08;6.45;;;17.00;99.90;;;;;;5095871;27;20493;-90
2023/07/12 04:23:49;;;;;;;19.58;7.07;;;17.10;99.90;;;;;;5094887;27;20399;-90
2023/07/12 04:26:17;;;;;;;20.58;7.38;;;17.20;99.90;;;;;;5096241;27;20394;-90
2023/07/12 04:28:46;;;;;;;19.83;7.28;;;17.20;99.90;;;;;;5093913;27;20478;-92
2023/07/12 04:31:12;;;;;;;21.85;7.30;;;17.40;99.90;;;;;;5096455;27;20924;-91
2023/07/12 04:33:38;;;;;;;24.95;7.82;;;17.60;99.90;;;;;;5094018;27;20410;-90
2023/07/12 04:36:07;;;;;;;18.20;6.60;;;17.80;99.90;;;;;;5096107;27;20447;-91
2023/07/12 04:38:34;;;;;;;22.05;7.40;;;17.60;99.90;;;;;;5095264;27;20405;-91
2023/07/12 04:41:00;;;;;;;17.67;6.30;;;17.10;99.90;;;;;;5095905;27;20415;-90
2023/07/12 04:43:25;;;;;;;21.48;6.75;;;17.30;99.90;;;;;;5095840;27;20829;-91
2023/07/12 04:45:52;;;;;;;18.50;7.07;;;17.20;99.90;;;;;;5094326;27;20390;-90
2023/07/12 04:48:18;;;;;;;23.35;6.93;;;17.70;99.90;;;;;;5113492;27;20405;-90
2023/07/12 04:50:44;;;;;;;22.80;7.43;;;17.60;99.90;;;;;;5093198;27;20473;-91
2023/07/12 04:53:12;;;;;;;19.65;6.47;;;18.20;99.90;;;;;;5096742;27;20409;-91
2023/07/12 04:55:38;;;;;;;18.67;6.20;;;17.50;99.90;;;;;;5095159;27;20398;-92
2023/07/12 04:58:04;;;;;;;21.30;7.32;;;17.70;99.90;;;;;;5113644;27;20476;-92
2023/07/12 05:00:30;;;;;;;21.77;7.10;;;17.50;99.90;;;;;;5116698;27;20405;-93
2023/07/12 05:02:56;;;;;;;23.23;6.80;;;17.70;99.90;;;;;;5114745;27;20756;-91
2023/07/12 05:05:22;;;;;;;19.07;5.80;;;17.70;99.90;;;;;;5118733;27;20400;-95
2023/07/12 05:07:51;;;;;;;18.65;6.55;;;17.70;99.90;;;;;;5114374;27;21006;-94
2023/07/12 05:10:17;;;;;;;20.02;6.30;;;18.20;99.90;;;;;;5108073;27;20428;-95
2023/07/12 05:12:43;;;;;;;18.75;6.40;;;17.90;99.90;;;;;;5113723;27;20417;-92
2023/07/12 05:15:10;;;;;;;21.83;5.82;;;18.40;99.90;;;;;;5116832;27;20489;-93
2023/07/12 05:17:38;;;;;;;19.10;5.63;;;18.90;99.90;;;;;;5117408;27;20422;-93
2023/07/12 05:20:07;;;;;;;18.25;5.70;;;18.30;99.90;;;;;;5116346;27;20405;-92
2023/07/12 05:22:33;;;;;;;17.30;5.85;;;18.00;99.90;;;;;;5115181;27;20895;-92
2023/07/12 05:25:00;;;;;;;20.85;6.00;;;18.10;99.90;;;;;;5114179;27;20409;-91
2023/07/12 05:27:26;;;;;;;22.77;5.60;;;18.80;99.90;;;;;;5115506;27;20469;-94
2023/07/12 05:29:53;;;;;;;19.90;5.70;;;18.60;99.90;;;;;;5112682;27;20417;-93
2023/07/12 05:32:19;;;;;;;18.00;5.78;;;18.50;99.90;;;;;;5116310;27;20433;-93
2023/07/12 05:34:45;;;;;;;17.73;5.47;;;18.90;99.90;;;;;;5114218;27;20408;-92
2023/07/12 05:37:12;;;;;;;16.23;4.93;;;19.10;99.90;;;;;;5116351;27;20409;-94
2023/07/12 05:39:38;;;;;;;17.20;5.00;;;18.40;99.90;;;;;;5115361;27;20492;-93
2023/07/12 05:42:04;;;;;;;18.92;5.25;;;18.40;99.90;;;;;;5116054;27;20405;-92
2023/07/12 05:44:30;;;;;;;16.20;4.85;;;18.50;99.90;;;;;;5116682;27;20462;-92
2023/07/12 05:46:56;;;;;;;16.00;5.00;;;18.80;99.90;;;;;;5114796;27;20956;-93
2023/07/12 05:49:25;;;;;;;14.00;4.63;;;19.30;99.90;;;;;;5118220;27;20444;-92
2023/07/12 05:51:51;;;;;;;17.85;5.00;;;19.50;99.90;;;;;;5115120;27;20409;-93
2023/07/12 05:54:17;;;;;;;13.25;3.97;;;19.10;99.90;;;;;;5121257;27;20401;-93
2023/07/12 05:56:45;;;;;;;16.20;5.20;;;18.80;99.90;;;;;;5118219;27;20409;-94
2023/07/12 05:59:14;;;;;;;16.63;4.90;;;19.40;99.90;;;;;;5122065;27;20829;-94
2023/07/12 06:01:40;;;;;;;16.80;4.82;;;19.20;99.90;;;;;;5115770;27;20401;-96
2023/07/12 06:04:08;;;;;;;15.50;4.50;;;19.30;99.90;;;;;;5120499;27;20393;-92
2023/07/12 06:06:34;;;;;;;17.35;4.78;;;19.60;99.90;;;;;;5116577;27;20401;-94
2023/07/12 06:09:00;;;;;;;14.57;3.85;;;19.30;99.90;;;;;;5114855;27;20385;-94
2023/07/12 06:11:25;;;;;;;16.83;4.03;;;19.20;99.90;;;;;;5115605;27;20407;-94
2023/07/12 06:13:53;;;;;;;14.55;4.20;;;19.70;99.90;;;;;;5113669;27;20775;-93
2023/07/12 06:16:18;;;;;;;13.18;4.22;;;19.30;99.90;;;;;;5119095;27;20401;-94
2023/07/12 06:18:44;;;;;;;15.88;3.95;;;19.50;99.90;;;;;;5114170;27;20404;-93
2023/07/12 06:21:18;;;;;;;15.97;4.30;;;19.60;99.90;;;;;;5119769;27;20397;-94
2023/07/12 06:23:50;;;;;;;11.80;3.97;;;19.30;99.90;;;;;;5118738;27;20411;-93
2023/07/12 06:26:15;;;;;;;16.63;4.13;;;19.80;99.90;;;;;;5122105;27;20467;-93
2023/07/12 06:28:41;;;;;;;15.73;4.22;;;20.40;99.90;;;;;;5112510;27;20400;-91
2023/07/12 06:31:07;;;;;;;13.43;4.10;;;20.20;99.90;;;;;;5116163;27;20476;-94
2023/07/12 06:33:33;;;;;;;15.10;3.72;;;20.60;99.90;;;;;;5111259;28;20386;-93
2023/07/12 06:36:00;;;;;;;14.20;3.95;;;20.00;99.90;;;;;;5094197;28;20421;-93
2023/07/12 06:38:29;;;;;;;15.88;4.28;;;19.70;99.90;;;;;;5096504;28;20753;-95
2023/07/12 06:40:58;;;;;;;17.33;4.15;;;19.50;99.90;;;;;;5093873;28;20410;-94
2023/07/12 06:43:39;;;;;;;16.88;4.65;;;19.10;99.90;;;;;;5081883;28;20912;-94
2023/07/12 06:46:06;;;;;;;16.08;4.60;;;19.00;99.90;;;;;;5094960;28;20420;-94
2023/07/12 06:48:32;;;;;;;17.83;4.68;;;19.30;99.90;;;;;;5094988;28;20407;-93
2023/07/12 06:50:58;;;;;;;16.27;4.50;;;18.90;99.90;;;;;;5092016;28;20426;-94
2023/07/12 06:53:26;;;;;;;16.13;5.20;;;18.90;99.90;;;;;;5093841;28;20471;-93
2023/07/12 06:55:52;;;;;;;14.05;4.22;;;19.00;99.90;;;;;;5093899;28;20395;-93
2023/07/12 06:58:18;;;;;;;17.25;4.13;;;19.10;99.90;;;;;;5094018;28;20438;-93
2023/07/12 07:00:44;;;;;;;14.17;3.90;;;19.30;99.90;;;;;;5094555;28;20403;-95
2023/07/12 07:03:12;;;;;;;14.73;4.45;;;19.60;99.90;;;;;;5093166;28;20435;-94
2023/07/12 07:05:44;;;;;;;17.08;3.88;;;20.40;99.90;;;;;;5095456;28;20407;-95
2023/07/12 07:08:19;;;;;;;47.65;10.32;;;20.10;99.90;;;;;;5094827;28;20462;-95
2023/07/12 07:13:22;;;;;;;24.42;9.75;;;19.20;99.90;;;;;;5323472;22;20556;-93
2023/07/12 07:15:48;;;;;;;32.45;12.52;;;18.80;99.90;;;;;;5014043;28;20411;-93
2023/07/12 07:18:14;;;;;;;35.70;15.55;;;18.50;99.90;;;;;;5015976;28;20870;-93
2023/07/12 07:20:41;;;;;;;31.38;15.57;;;18.60;99.90;;;;;;5012812;28;20498;-91
2023/07/12 07:23:07;;;;;;;33.13;13.95;;;18.50;99.90;;;;;;5014201;28;20399;-89
2023/07/12 07:25:33;;;;;;;25.10;13.63;;;18.20;99.90;;;;;;5030105;28;20474;-91
2023/07/12 07:27:58;;;;;;;26.20;11.98;;;18.20;99.90;;;;;;5013758;28;20514;-95
2023/07/12 07:30:24;;;;;;;25.58;13.55;;;18.40;99.90;;;;;;5013306;28;20431;-92
2023/07/12 07:32:54;;;;;;;34.07;15.83;;;18.10;99.90;;;;;;5021870;22;20430;-94
2023/07/12 07:35:21;;;;;;;24.95;11.70;;;18.00;99.90;;;;;;4974979;28;20822;-94
2023/07/12 07:37:48;;;;;;;25.10;11.52;;;17.90;99.90;;;;;;4975069;28;20419;-93
2023/07/12 07:40:14;;;;;;;19.97;9.73;;;18.20;99.90;;;;;;4973430;28;20403;-91
2023/07/12 07:42:41;;;;;;;21.90;11.38;;;17.80;99.90;;;;;;4964860;28;20474;-93
2023/07/12 07:45:09;;;;;;;20.35;10.60;;;17.80;99.90;;;;;;4969446;28;20407;-93
2023/07/12 07:47:35;;;;;;;13.70;7.43;;;17.60;99.90;;;;;;4967864;28;20418;-91
2023/07/12 07:50:02;;;;;;;11.63;6.30;;;18.00;99.90;;;;;;4972163;28;20431;-91
2023/07/12 07:52:28;;;;;;;14.85;7.95;;;17.60;99.90;;;;;;4975130;28;20423;-91
2023/07/12 07:54:54;;;;;;;13.15;8.15;;;17.50;99.90;;;;;;4973899;28;20441;-92
2023/07/12 07:57:20;;;;;;;15.20;7.67;;;17.40;99.90;;;;;;4974117;28;20410;-91
2023/07/12 07:59:47;;;;;;;11.93;5.70;;;17.70;99.90;;;;;;4975150;28;20527;-92
2023/07/12 08:02:13;;;;;;;15.13;7.40;;;17.80;99.90;;;;;;4972452;28;20493;-93
2023/07/12 08:04:39;;;;;;;13.15;6.63;;;18.10;99.90;;;;;;4974791;28;20442;-95
2023/07/12 08:07:06;;;;;;;12.85;5.85;;;19.10;99.90;;;;;;4973213;28;20796;-91
2023/07/12 08:09:34;;;;;;;16.43;7.63;;;18.60;99.90;;;;;;4977067;28;21197;-92
2023/07/12 08:12:12;;;;;;;18.20;7.47;;;19.60;99.90;;;;;;4974755;28;20421;-93
2023/07/12 08:14:45;;;;;;;12.50;5.80;;;19.20;99.90;;;;;;4974421;28;20498;-92
2023/07/12 08:17:11;;;;;;;12.65;3.47;;;19.40;99.90;;;;;;4975470;28;20878;-93
2023/07/12 08:19:37;;;;;;;8.50;3.72;;;19.30;99.90;;;;;;4971946;28;20418;-90
2023/07/12 08:22:03;;;;;;;9.38;3.90;;;19.50;99.90;;;;;;4973703;28;20446;-93
2023/07/12 08:24:29;;;;;;;9.40;4.30;;;19.10;99.90;;;;;;4971089;28;20429;-90
2023/07/12 08:26:54;;;;;;;12.43;4.40;;;19.00;99.90;;;;;;4974261;28;20410;-92
2023/07/12 08:29:26;;;;;;;9.80;4.00;;;19.30;99.90;;;;;;4969197;28;20402;-93
2023/07/12 08:32:17;;;;;;;11.50;3.85;;;19.00;99.90;;;;;;4973577;28;20506;-93
2023/07/12 08:34:43;;;;;;;9.18;3.03;;;18.90;99.90;;;;;;4973668;28;20417;-93
2023/07/12 08:37:09;;;;;;;10.93;3.83;;;19.20;99.90;;;;;;4976668;28;20422;-88
2023/07/12 08:39:35;;;;;;;9.40;3.30;;;19.00;99.90;;;;;;4977417;28;20536;-94
2023/07/12 08:42:04;;;;;;;10.00;4.03;;;19.20;99.90;;;;;;4978327;28;20441;-92
2023/07/12 08:44:35;;;;;;;9.68;3.50;;;19.20;99.90;;;;;;4973577;28;20407;-93
2023/07/12 08:47:02;;;;;;;9.48;2.70;;;19.90;99.90;;;;;;4978033;28;20399;-90
2023/07/12 08:49:29;;;;;;;7.82;2.83;;;19.70;99.90;;;;;;4972213;28;20434;-93
2023/07/12 08:52:18;;;;;;;7.82;2.28;;;20.00;99.90;;;;;;4973680;28;20411;-94
2023/07/12 08:54:48;;;;;;;6.93;1.98;;;20.30;99.90;;;;;;4990988;28;20458;-95
2023/07/12 08:57:23;;;;;;;5.57;1.30;;;20.50;99.90;;;;;;4968740;28;20434;-91
2023/07/12 09:00:00;;;;;;;5.63;1.42;;;20.40;99.90;;;;;;4973210;28;20442;-92
2023/07/12 09:02:32;;;;;;;5.00;1.13;;;20.30;99.90;;;;;;4971023;28;20980;-93
2023/07/12 09:05:09;;;;;;;6.68;1.67;;;20.30;99.90;;;;;;4991880;28;20414;-90
2023/07/12 09:07:38;;;;;;;6.60;1.80;;;20.80;99.90;;;;;;4973222;28;20406;-90
2023/07/12 09:10:05;;;;;;;6.43;1.70;;;21.10;99.90;;;;;;4973405;28;20440;-94
2023/07/12 09:12:34;;;;;;;8.05;2.30;;;21.00;99.90;;;;;;4973674;28;20422;-92
2023/07/12 09:15:10;;;;;;;6.95;1.70;;;21.10;99.90;;;;;;4973121;28;20410;-92
2023/07/12 09:17:42;;;;;;;5.68;2.05;;;21.30;99.90;;;;;;4974143;28;20413;-92
2023/07/12 09:20:30;;;;;;;6.28;2.28;;;21.70;99.90;;;;;;4971326;28;20843;-90
2023/07/12 09:22:58;;;;;;;8.30;2.60;;;21.30;99.90;;;;;;4974904;28;20422;-92
2023/07/12 09:25:38;;;;;;;6.25;2.70;;;21.20;99.90;;;;;;4973973;28;20411;-91
2023/07/12 09:28:23;;;;;;;6.28;2.22;;;21.10;99.90;;;;;;4979398;28;20422;-96
2023/07/12 09:30:51;;;;;;;7.70;2.50;;;20.80;99.90;;;;;;4974682;28;20442;-90
2023/07/12 09:33:21;;;;;;;5.75;1.80;;;21.50;99.90;;;;;;4973340;28;20423;-93
2023/07/12 09:35:55;;;;;;;3.45;1.77;;;21.70;99.90;;;;;;4971422;28;20422;-92
2023/07/12 09:38:25;;;;;;;6.22;2.10;;;21.50;99.90;;;;;;4973413;28;20419;-93
2023/07/12 09:40:52;;;;;;;5.90;1.80;;;21.90;99.90;;;;;;4972405;28;20430;-94
2023/07/12 09:43:21;;;;;;;7.22;2.10;;;22.30;99.90;;;;;;4971414;28;20490;-90
2023/07/12 09:46:00;;;;;;;5.38;1.80;;;22.40;99.90;;;;;;4973133;28;20416;-92
2023/07/12 09:48:55;;;;;;;4.57;1.48;;;22.20;99.90;;;;;;4971070;28;20509;-93
2023/07/12 09:51:41;;;;;;;4.93;1.77;;;21.80;99.90;;;;;;4966806;28;20437;-91
2023/07/12 09:54:45;;;;;;;6.28;2.40;;;21.60;99.90;;;;;;4972422;28;20414;-90
2023/07/12 09:57:31;;;;;;;4.75;2.20;;;21.90;99.90;;;;;;4970519;28;20411;-90
2023/07/12 10:00:26;;;;;;;6.97;2.50;;;22.10;99.90;;;;;;4971284;28;20488;-93
2023/07/12 10:03:01;;;;;;;4.63;1.33;;;21.90;99.90;;;;;;4989506;28;20453;-89
2023/07/12 10:05:33;;;;;;;3.92;1.20;;;21.60;99.90;;;;;;4970925;28;20446;-89
2023/07/12 10:08:15;;;;;;;5.78;1.45;;;21.00;99.90;;;;;;4972389;28;20418;-91
2023/07/12 10:10:53;;;;;;;5.05;1.60;;;21.00;99.90;;;;;;4970716;28;20438;-94
2023/07/12 10:13:26;;;;;;;5.15;1.48;;;21.00;99.90;;;;;;4971331;28;20501;-91
2023/07/12 10:15:52;;;;;;;3.53;1.00;;;21.10;99.90;;;;;;4972169;28;20419;-92
2023/07/12 10:18:28;;;;;;;4.35;1.50;;;21.20;99.90;;;;;;4968762;28;20793;-94
2023/07/12 10:20:56;;;;;;;5.68;1.58;;;21.80;99.90;;;;;;4968479;28;20423;-93
2023/07/12 10:23:27;;;;;;;5.43;1.40;;;21.70;99.90;;;;;;4951869;28;21202;-90
2023/07/12 10:26:02;;;;;;;4.82;1.40;;;22.40;99.90;;;;;;4953200;28;20416;-94
2023/07/12 10:28:45;;;;;;;5.43;1.13;;;22.30;99.90;;;;;;4951690;28;20502;-89
2023/07/12 10:31:53;;;;;;;4.07;1.23;;;22.40;99.90;;;;;;4951355;28;20436;-94
2023/07/12 10:34:27;;;;;;;5.28;1.00;;;22.40;99.90;;;;;;4921625;28;20431;-92
2023/07/12 10:36:55;;;;;;;4.10;1.17;;;22.50;99.90;;;;;;4951293;28;20416;-93
2023/07/12 10:39:26;;;;;;;5.00;1.05;;;22.30;99.90;;;;;;4953401;28;20891;-88
2023/07/12 10:42:00;;;;;;;4.05;0.80;;;22.40;99.90;;;;;;4951682;28;20419;-91
2023/07/12 10:44:31;;;;;;;3.03;0.93;;;22.30;99.90;;;;;;4951485;28;20507;-88
2023/07/12 10:47:01;;;;;;;4.20;0.80;;;22.50;99.90;;;;;;4955814;28;20423;-90
2023/07/12 10:49:46;;;;;;;3.10;0.50;;;22.90;99.90;;;;;;4954691;28;20448;-94
2023/07/12 10:52:11;;;;;;;6.00;0.55;;;23.00;96.30;;;;;;4956940;28;20416;-90
2023/07/12 10:54:51;;;;;;;4.57;0.50;;;23.00;94.30;;;;;;4955801;28;20989;-93
2023/07/12 10:57:20;;;;;;;3.88;0.70;;;23.20;97.30;;;;;;4956477;28;20416;-93
2023/07/12 10:59:46;;;;;;;4.38;0.65;;;23.30;93.80;;;;;;4956602;28;20420;-92
2023/07/12 11:02:27;;;;;;;3.97;0.55;;;23.60;99.10;;;;;;4954479;28;20471;-88
2023/07/12 11:04:53;;;;;;;3.70;0.60;;;23.70;90.50;;;;;;4972223;28;20478;-94
2023/07/12 11:07:18;;;;;;;5.30;0.70;;;23.40;90.70;;;;;;4970499;28;20420;-92
2023/07/12 11:09:50;;;;;;;2.95;0.50;;;23.40;90.40;;;;;;4956860;28;20854;-94
2023/07/12 11:12:16;;;;;;;3.38;0.30;;;23.30;87.40;;;;;;4971149;28;20416;-90
2023/07/12 11:14:50;;;;;;;3.88;0.50;;;23.70;94.90;;;;;;4955468;28;20443;-91
2023/07/12 11:17:22;;;;;;;3.88;0.70;;;24.00;88.60;;;;;;4955855;28;20434;-92
2023/07/12 11:20:01;;;;;;;3.90;0.75;;;24.30;95.30;;;;;;4954004;28;20507;-87
2023/07/12 11:22:55;;;;;;;3.53;0.50;;;24.50;79.80;;;;;;4956009;28;20416;-93
2023/07/12 11:25:57;;;;;;;3.95;0.50;;;24.40;74.70;;;;;;4954318;28;20416;-91
2023/07/12 11:28:28;;;;;;;3.20;0.47;;;24.30;70.90;;;;;;4954108;28;20467;-92
2023/07/12 11:31:26;;;;;;;3.08;0.45;;;24.30;77.40;;;;;;4955045;28;20440;-91
2023/07/12 11:34:18;;;;;;;3.33;0.40;;;24.50;68.60;;;;;;4937857;28;20435;-93
2023/07/12 11:36:51;;;;;;;2.42;0.30;;;24.80;79.50;;;;;;4954246;28;20417;-93
2023/07/12 11:39:21;;;;;;;2.17;0.40;;;25.50;90.70;;;;;;4955410;28;20420;-90
2023/07/12 11:42:08;;;;;;;4.22;0.70;;;25.70;68.80;;;;;;4952391;28;20421;-90
2023/07/12 11:44:35;;;;;;;2.15;0.40;;;25.80;60.10;;;;;;4954929;28;20439;-90
2023/07/12 11:47:02;;;;;;;3.22;0.30;;;25.80;66.30;;;;;;4953135;28;20819;-89
2023/07/12 11:49:30;;;;;;;2.95;0.30;;;25.80;64.90;;;;;;4970168;28;20567;-92
2023/07/12 11:51:58;;;;;;;2.40;0.30;;;25.80;65.00;;;;;;4953425;28;20412;-89
2023/07/12 11:54:27;;;;;;;2.80;0.30;;;25.80;58.70;;;;;;4968800;28;20408;-93
2023/07/12 11:56:58;;;;;;;1.20;0.20;;;25.60;59.20;;;;;;4954376;28;20416;-91
2023/07/12 11:59:27;;;;;;;1.92;0.32;;;25.50;60.80;;;;;;4968068;28;20420;-95
2023/07/12 12:01:53;;;;;;;2.10;0.30;;;25.40;60.80;;;;;;4970432;28;20412;-88
2023/07/12 12:04:26;;;;;;;3.13;0.20;;;25.60;63.20;;;;;;4968787;28;20427;-89
2023/07/12 12:06:55;;;;;;;2.43;0.20;;;25.50;63.60;;;;;;4969724;28;20512;-88
2023/07/12 12:09:28;;;;;;;1.70;0.20;;;25.70;59.60;;;;;;4954360;28;20484;-89
2023/07/12 12:11:55;;;;;;;2.45;0.28;;;25.70;56.70;;;;;;4952360;28;20435;-90
2023/07/12 12:14:29;;;;;;;2.38;0.40;;;25.70;53.60;;;;;;4954459;28;20990;-89
2023/07/12 12:17:02;;;;;;;1.60;0.20;;;25.70;54.50;;;;;;4968236;28;20957;-90
2023/07/12 12:19:30;;;;;;;2.72;0.30;;;25.60;56.60;;;;;;4970305;28;20412;-90
2023/07/12 12:22:03;;;;;;;1.95;0.20;;;25.60;60.00;;;;;;4969977;28;20506;-88
2023/07/12 12:24:46;;;;;;;1.88;0.25;;;25.60;55.50;;;;;;4968532;28;20808;-91
2023/07/12 12:27:22;;;;;;;1.57;0.30;;;25.60;56.70;;;;;;4970794;28;20423;-90
2023/07/12 12:29:49;;;;;;;2.10;0.30;;;25.60;58.20;;;;;;4968555;28;20440;-93
2023/07/12 12:32:18;;;;;;;1.70;0.20;;;25.70;57.00;;;;;;4970977;28;20546;-89
2023/07/12 12:34:50;;;;;;;2.92;0.22;;;25.60;56.70;;;;;;4952504;28;20522;-93
2023/07/12 12:37:20;;;;;;;2.22;0.20;;;25.60;54.10;;;;;;4969598;28;20478;-91
2023/07/12 12:39:59;;;;;;;2.30;0.20;;;25.70;54.30;;;;;;4969591;28;20420;-89
2023/07/12 12:42:28;;;;;;;3.22;0.20;;;25.90;57.80;;;;;;4968828;28;20959;-90
2023/07/12 12:44:55;;;;;;;2.80;0.35;;;26.10;59.00;;;;;;4971360;28;20408;-92
2023/07/12 12:47:26;;;;;;;1.90;0.20;;;26.60;57.60;;;;;;4968136;28;20419;-93
2023/07/12 12:49:52;;;;;;;1.70;0.10;;;26.50;51.80;;;;;;4954189;28;20440;-88
2023/07/12 12:52:29;;;;;;;0.98;0.10;;;26.60;53.50;;;;;;4968009;28;20519;-87
2023/07/12 12:54:59;;;;;;;1.48;0.20;;;26.60;48.30;;;;;;4967893;28;20412;-88